Time;durP1;ratioP1;P1;durP2;ratioP2;P2;SDS_P1;SDS_P2;PMS_P1;PMS_P2;Temp;Humidity;BMP_temperature;BMP_pressure;BME280_temperature;BME280_humidity;BME280_pressure;Samples;Min_cycle;Max_cycle;Signal;HPM_P1;HPM_P2
2023/09/11 00:01:34;;;;;;;1795.40;876.40;;;;;;;;;;4828309;28;20074;-86
2023/09/11 00:04:01;;;;;;;1856.88;883.35;;;;;;;;;;4820653;28;20051;-87
2023/09/11 00:06:28;;;;;;;1973.70;903.28;;;;;;;;;;4826773;28;21030;-86
2023/09/11 00:08:57;;;;;;;1910.95;891.25;;;;;;;;;;4837246;28;20047;-87
2023/09/11 00:11:24;;;;;;;1806.82;871.65;;;;;;;;;;4822301;28;20097;-86
2023/09/11 00:13:50;;;;;;;1923.97;895.78;;;;;;;;;;4835356;28;20074;-86
2023/09/11 00:16:17;;;;;;;1750.85;860.38;;;;;;;;;;4817616;28;20038;-86
2023/09/11 00:18:44;;;;;;;1999.90;925.53;;;;;;;;;;4829702;28;20046;-86
2023/09/11 00:21:12;;;;;;;1758.03;862.88;;;;;;;;;;4840774;28;20993;-86
2023/09/11 00:23:38;;;;;;;1709.10;851.33;;;;;;;;;;4832337;28;21139;-86
2023/09/11 00:26:05;;;;;;;1961.07;889.08;;;;;;;;;;4835977;28;20990;-86
2023/09/11 00:28:31;;;;;;;1775.55;865.53;;;;;;;;;;4838051;28;20039;-86
2023/09/11 00:31:01;;;;;;;1831.80;877.67;;;;;;;;;;4812489;28;20860;-86
2023/09/11 00:33:28;;;;;;;1886.85;873.97;;;;;;;;;;4804336;28;20070;-86
2023/09/11 00:35:55;;;;;;;1961.82;892.72;;;;;;;;;;4815151;28;20047;-87
2023/09/11 00:38:21;;;;;;;1819.72;864.28;;;;;;;;;;4818012;28;20046;-86
2023/09/11 00:40:48;;;;;;;1842.65;857.58;;;;;;;;;;4829689;28;20046;-86
2023/09/11 00:43:15;;;;;;;1783.57;849.90;;;;;;;;;;4836288;28;20554;-86
2023/09/11 00:45:41;;;;;;;1757.32;841.03;;;;;;;;;;4836014;28;20035;-86
2023/09/11 00:48:08;;;;;;;1763.82;846.17;;;;;;;;;;4829293;28;20207;-87
2023/09/11 00:50:35;;;;;;;1999.90;895.88;;;;;;;;;;4831107;28;20039;-86
2023/09/11 00:53:03;;;;;;;1999.90;908.65;;;;;;;;;;4824257;28;21261;-87
2023/09/11 00:55:30;;;;;;;1765.88;842.17;;;;;;;;;;4830756;28;21162;-87
2023/09/11 00:57:57;;;;;;;1866.50;854.20;;;;;;;;;;4828941;28;21139;-87
2023/09/11 01:00:23;;;;;;;1756.97;832.70;;;;;;;;;;4823284;28;21079;-87
2023/09/11 01:02:50;;;;;;;1867.10;856.88;;;;;;;;;;4833857;28;20046;-87
2023/09/11 01:05:17;;;;;;;1859.15;847.95;;;;;;;;;;4817142;28;20052;-87
2023/09/11 01:07:43;;;;;;;1944.60;876.75;;;;;;;;;;4812672;28;21065;-87
2023/09/11 01:10:10;;;;;;;1698.82;828.67;;;;;;;;;;4842599;28;20054;-86
2023/09/11 01:12:38;;;;;;;1652.65;820.33;;;;;;;;;;4847857;28;20868;-86
2023/09/11 01:15:05;;;;;;;1704.32;828.95;;;;;;;;;;4852710;28;20050;-87
2023/09/11 01:17:34;;;;;;;1694.32;831.75;;;;;;;;;;4849660;28;20039;-87
2023/09/11 01:20:08;;;;;;;1793.13;838.75;;;;;;;;;;4847839;28;20226;-86
2023/09/11 01:22:49;;;;;;;1652.30;822.65;;;;;;;;;;4833211;28;20093;-86
2023/09/11 01:25:15;;;;;;;1698.05;830.20;;;;;;;;;;4848392;28;20054;-86
2023/09/11 01:27:51;;;;;;;1664.60;819.92;;;;;;;;;;4848054;28;20930;-86
2023/09/11 01:30:20;;;;;;;1642.68;812.80;;;;;;;;;;4847995;28;20043;-86
2023/09/11 01:32:47;;;;;;;1662.97;820.40;;;;;;;;;;4831217;28;20435;-86
2023/09/11 01:35:14;;;;;;;1711.22;826.55;;;;;;;;;;4815337;28;20850;-86
2023/09/11 01:37:41;;;;;;;1653.25;813.00;;;;;;;;;;4834218;29;20098;-86
2023/09/11 01:40:08;;;;;;;1653.00;819.92;;;;;;;;;;4822391;28;20043;-86
2023/09/11 01:42:40;;;;;;;1723.15;828.10;;;;;;;;;;4831090;28;20039;-86
2023/09/11 01:45:08;;;;;;;1667.18;816.40;;;;;;;;;;4837861;28;20874;-86
2023/09/11 01:47:35;;;;;;;1670.75;829.30;;;;;;;;;;4848496;28;20971;-86
2023/09/11 01:50:02;;;;;;;1801.05;843.40;;;;;;;;;;4848867;28;20112;-85
2023/09/11 01:52:29;;;;;;;1664.57;819.80;;;;;;;;;;4849695;28;20044;-86
2023/09/11 01:54:56;;;;;;;1637.82;815.83;;;;;;;;;;4831672;28;20047;-86
2023/09/11 01:57:25;;;;;;;1703.20;831.15;;;;;;;;;;4852164;28;20145;-85
2023/09/11 01:59:52;;;;;;;1667.00;822.85;;;;;;;;;;4848957;28;20050;-86
2023/09/11 02:02:19;;;;;;;713.42;636.22;;;;;;;;;;4560541;22;20059;-63
2023/09/11 02:04:46;;;;;;;728.70;650.17;;;;;;;;;;4990963;28;20046;-63
2023/09/11 02:07:13;;;;;;;710.33;632.55;;;;;;;;;;5003304;28;20050;-64
2023/09/11 02:09:40;;;;;;;720.05;642.50;;;;;;;;;;4990684;28;20047;-64
2023/09/11 02:12:07;;;;;;;710.92;634.50;;;;;;;;;;4990940;28;20499;-64
2023/09/11 02:14:33;;;;;;;705.08;628.17;;;;;;;;;;4980537;28;20376;-64
2023/09/11 02:17:02;;;;;;;717.92;638.88;;;;;;;;;;4997094;28;20479;-65
2023/09/11 02:19:30;;;;;;;714.65;637.88;;;;;;;;;;4997545;28;20136;-63
2023/09/11 02:21:56;;;;;;;707.60;630.85;;;;;;;;;;5014462;28;20046;-64
2023/09/11 02:24:23;;;;;;;705.10;628.05;;;;;;;;;;4996534;28;20545;-62
2023/09/11 02:26:50;;;;;;;708.17;631.45;;;;;;;;;;4996539;28;20077;-63
2023/09/11 02:29:17;;;;;;;713.03;635.85;;;;;;;;;;5014387;28;20034;-63
2023/09/11 02:31:43;;;;;;;699.47;624.00;;;;;;;;;;4997824;28;20561;-63
2023/09/11 02:34:10;;;;;;;700.53;621.03;;;;;;;;;;5014053;28;20503;-62
2023/09/11 02:36:36;;;;;;;707.67;631.85;;;;;;;;;;4992742;28;20730;-62
2023/09/11 02:39:03;;;;;;;709.63;632.22;;;;;;;;;;5006344;28;20138;-63
2023/09/11 02:41:30;;;;;;;708.88;632.03;;;;;;;;;;5012411;28;20475;-62
2023/09/11 02:43:57;;;;;;;715.22;628.97;;;;;;;;;;4991193;28;20069;-62
2023/09/11 02:46:23;;;;;;;710.00;630.67;;;;;;;;;;5007659;28;20046;-62
2023/09/11 02:48:50;;;;;;;704.63;627.88;;;;;;;;;;4991988;28;20104;-62
2023/09/11 02:51:17;;;;;;;706.58;629.97;;;;;;;;;;5012501;28;20069;-62
2023/09/11 02:53:44;;;;;;;703.92;626.30;;;;;;;;;;5011994;28;20049;-62
2023/09/11 02:56:11;;;;;;;707.03;630.42;;;;;;;;;;4995906;28;20135;-63
2023/09/11 02:58:37;;;;;;;723.60;629.53;;;;;;;;;;5013039;28;20058;-62
2023/09/11 03:01:04;;;;;;;743.40;620.53;;;;;;;;;;5004718;28;20538;-63
2023/09/11 03:03:31;;;;;;;699.75;620.45;;;;;;;;;;4988677;28;20503;-63
2023/09/11 03:05:59;;;;;;;704.03;619.97;;;;;;;;;;4992024;28;20046;-63
2023/09/11 03:08:26;;;;;;;708.92;627.90;;;;;;;;;;5013568;28;20045;-63
2023/09/11 03:11:02;;;;;;;730.42;629.58;;;;;;;;;;4996227;28;20085;-63
2023/09/11 03:13:29;;;;;;;694.15;618.42;;;;;;;;;;4993584;28;20117;-63
2023/09/11 03:15:55;;;;;;;698.05;621.47;;;;;;;;;;4992349;28;20054;-63
2023/09/11 03:18:22;;;;;;;700.72;624.55;;;;;;;;;;5013016;28;20042;-63
2023/09/11 03:20:57;;;;;;;706.42;629.10;;;;;;;;;;5012985;28;20049;-64
2023/09/11 03:23:24;;;;;;;700.28;612.88;;;;;;;;;;5012978;28;20120;-63
2023/09/11 03:25:51;;;;;;;727.35;632.38;;;;;;;;;;4995241;28;20053;-64
2023/09/11 03:28:18;;;;;;;700.92;624.13;;;;;;;;;;5012652;28;20041;-62
2023/09/11 03:30:44;;;;;;;690.45;614.13;;;;;;;;;;4991952;28;20050;-63
2023/09/11 03:33:11;;;;;;;705.70;608.33;;;;;;;;;;4978854;28;20069;-63
2023/09/11 03:35:38;;;;;;;687.38;609.20;;;;;;;;;;4988962;28;20073;-62
2023/09/11 03:38:05;;;;;;;746.83;613.60;;;;;;;;;;4994884;28;20082;-63
2023/09/11 03:40:31;;;;;;;696.08;609.67;;;;;;;;;;5011831;28;20125;-63
2023/09/11 03:42:58;;;;;;;684.80;609.22;;;;;;;;;;4991506;28;20064;-65
2023/09/11 03:45:26;;;;;;;691.33;597.22;;;;;;;;;;4994971;28;20057;-63
2023/09/11 03:47:53;;;;;;;687.92;601.67;;;;;;;;;;5003950;28;20042;-63
2023/09/11 03:50:20;;;;;;;687.13;611.13;;;;;;;;;;5012638;28;20042;-64
2023/09/11 03:52:46;;;;;;;681.78;606.30;;;;;;;;;;5009999;28;20085;-65
2023/09/11 03:55:13;;;;;;;692.50;616.08;;;;;;;;;;4985505;28;20053;-63
2023/09/11 03:57:40;;;;;;;691.17;610.60;;;;;;;;;;5008642;28;20050;-63
2023/09/11 04:00:10;;;;;;;697.00;616.80;;;;;;;;;;4987219;28;20050;-62
2023/09/11 04:02:39;;;;;;;695.78;614.63;;;;;;;;;;4986167;28;20086;-63
2023/09/11 04:05:06;;;;;;;706.22;618.50;;;;;;;;;;4987458;28;20076;-63
2023/09/11 04:07:33;;;;;;;685.85;609.58;;;;;;;;;;5013349;28;20065;-62
2023/09/11 04:10:00;;;;;;;684.65;608.55;;;;;;;;;;5012051;28;20038;-62
2023/09/11 04:12:27;;;;;;;685.40;608.88;;;;;;;;;;5008361;28;20054;-64
2023/09/11 04:14:53;;;;;;;689.15;607.67;;;;;;;;;;5012066;28;20042;-63
2023/09/11 04:17:20;;;;;;;698.70;614.92;;;;;;;;;;5003262;28;20049;-63
2023/09/11 04:19:47;;;;;;;699.25;609.63;;;;;;;;;;4995092;28;20049;-64
2023/09/11 04:22:13;;;;;;;710.08;624.47;;;;;;;;;;4988437;28;20045;-62
2023/09/11 04:24:40;;;;;;;704.65;621.50;;;;;;;;;;5011130;28;20068;-63
2023/09/11 04:27:07;;;;;;;721.00;617.33;;;;;;;;;;4990935;28;20069;-63
2023/09/11 04:29:33;;;;;;;703.17;617.78;;;;;;;;;;4990643;28;20058;-63
2023/09/11 04:32:00;;;;;;;723.13;624.10;;;;;;;;;;4986724;28;20136;-63
2023/09/11 04:34:27;;;;;;;694.85;618.38;;;;;;;;;;4995359;28;20053;-64
2023/09/11 04:36:53;;;;;;;699.90;622.80;;;;;;;;;;4983827;28;20064;-63
2023/09/11 04:39:23;;;;;;;725.22;642.03;;;;;;;;;;5002047;28;20041;-64
2023/09/11 04:41:50;;;;;;;702.00;624.58;;;;;;;;;;4987519;28;20153;-64
2023/09/11 04:44:17;;;;;;;767.97;641.17;;;;;;;;;;5011501;28;20099;-65
2023/09/11 04:46:45;;;;;;;727.25;647.47;;;;;;;;;;4992101;28;20053;-66
2023/09/11 04:49:12;;;;;;;735.42;655.03;;;;;;;;;;4992220;28;20053;-66
2023/09/11 04:51:39;;;;;;;716.88;638.80;;;;;;;;;;5008788;28;20042;-66
2023/09/11 04:54:06;;;;;;;732.97;653.72;;;;;;;;;;4991994;28;20100;-67
2023/09/11 04:56:33;;;;;;;852.95;682.83;;;;;;;;;;4993363;28;20111;-65
2023/09/11 04:59:00;;;;;;;809.65;714.22;;;;;;;;;;4994241;28;20466;-65
2023/09/11 05:01:26;;;;;;;833.25;750.20;;;;;;;;;;4983210;28;20058;-64
2023/09/11 05:03:53;;;;;;;829.17;747.97;;;;;;;;;;4986672;28;20099;-65
2023/09/11 05:06:20;;;;;;;844.22;761.83;;;;;;;;;;5011063;28;20069;-66
2023/09/11 05:08:47;;;;;;;850.95;766.25;;;;;;;;;;5010092;28;20050;-64
2023/09/11 05:11:17;;;;;;;847.10;764.17;;;;;;;;;;4991788;28;20129;-64
2023/09/11 05:13:44;;;;;;;849.35;767.83;;;;;;;;;;4983614;28;20046;-66
2023/09/11 05:16:12;;;;;;;848.13;766.30;;;;;;;;;;4990208;28;20093;-65
2023/09/11 05:18:39;;;;;;;827.90;747.58;;;;;;;;;;4992845;28;20046;-66
2023/09/11 05:21:06;;;;;;;834.05;752.10;;;;;;;;;;5011050;28;20048;-66
2023/09/11 05:23:35;;;;;;;832.28;750.55;;;;;;;;;;4986377;28;20141;-65
2023/09/11 05:26:03;;;;;;;835.78;750.97;;;;;;;;;;5010603;28;20073;-64
2023/09/11 05:28:29;;;;;;;819.83;737.47;;;;;;;;;;5009937;28;20399;-66
2023/09/11 05:30:56;;;;;;;822.88;742.38;;;;;;;;;;5010683;28;20042;-66
2023/09/11 05:33:23;;;;;;;822.22;741.42;;;;;;;;;;5010034;28;20580;-65
2023/09/11 05:35:50;;;;;;;827.08;736.22;;;;;;;;;;5010989;28;20038;-67
2023/09/11 05:38:16;;;;;;;831.72;746.42;;;;;;;;;;5007480;28;20061;-65
2023/09/11 05:40:43;;;;;;;829.30;748.20;;;;;;;;;;4988488;28;20038;-65
2023/09/11 05:43:10;;;;;;;830.25;749.78;;;;;;;;;;5010666;28;20046;-64
2023/09/11 05:45:37;;;;;;;848.08;767.13;;;;;;;;;;4985954;28;20105;-66
2023/09/11 05:48:04;;;;;;;855.47;772.15;;;;;;;;;;4989705;28;20384;-68
2023/09/11 05:50:31;;;;;;;870.03;774.80;;;;;;;;;;5010996;28;20049;-65
2023/09/11 05:52:57;;;;;;;880.42;793.08;;;;;;;;;;5014649;28;20054;-64
2023/09/11 05:55:24;;;;;;;941.63;782.55;;;;;;;;;;5013530;28;20070;-65
2023/09/11 05:57:51;;;;;;;1210.63;832.47;;;;;;;;;;5012225;28;20034;-66
2023/09/11 06:00:19;;;;;;;868.03;781.28;;;;;;;;;;4992100;28;20042;-64
2023/09/11 06:02:46;;;;;;;878.08;792.70;;;;;;;;;;4995937;28;20135;-66
2023/09/11 06:05:13;;;;;;;877.25;792.55;;;;;;;;;;4996084;28;20037;-64
2023/09/11 06:07:40;;;;;;;883.75;797.05;;;;;;;;;;4994677;28;20050;-66
2023/09/11 06:10:07;;;;;;;879.45;795.70;;;;;;;;;;4994390;28;20264;-65
2023/09/11 06:12:33;;;;;;;903.53;818.20;;;;;;;;;;5013345;28;20037;-66
2023/09/11 06:15:00;;;;;;;918.58;832.05;;;;;;;;;;5011531;28;20049;-67
2023/09/11 06:17:27;;;;;;;955.25;869.15;;;;;;;;;;4995337;28;20045;-66
2023/09/11 06:20:10;;;;;;;993.50;901.85;;;;;;;;;;5011481;28;20052;-68
2023/09/11 06:22:37;;;;;;;1124.80;923.05;;;;;;;;;;5013911;28;20121;-66
2023/09/11 06:25:04;;;;;;;1060.85;965.17;;;;;;;;;;5013552;28;20050;-67
2023/09/11 06:27:31;;;;;;;1078.30;984.55;;;;;;;;;;4996012;28;20479;-65
2023/09/11 06:29:58;;;;;;;1110.85;999.90;;;;;;;;;;4992944;28;20080;-66
2023/09/11 06:32:24;;;;;;;1121.78;999.90;;;;;;;;;;5012124;28;20053;-67
2023/09/11 06:34:51;;;;;;;1134.75;999.90;;;;;;;;;;5013185;28;20045;-70
2023/09/11 06:37:18;;;;;;;1139.18;999.90;;;;;;;;;;5013516;28;20487;-67
2023/09/11 06:39:45;;;;;;;1139.63;999.90;;;;;;;;;;4991404;28;20057;-65
2023/09/11 06:42:21;;;;;;;1137.47;999.90;;;;;;;;;;5013259;28;20066;-66
2023/09/11 06:44:49;;;;;;;1142.28;999.90;;;;;;;;;;4992650;28;20049;-66
2023/09/11 06:47:16;;;;;;;1163.32;999.90;;;;;;;;;;5004403;28;20050;-66
2023/09/11 06:49:42;;;;;;;1162.63;999.90;;;;;;;;;;5005305;28;20050;-66
2023/09/11 06:52:09;;;;;;;1160.85;999.90;;;;;;;;;;5013600;28;20046;-66
2023/09/11 06:54:35;;;;;;;1167.25;999.90;;;;;;;;;;4995602;28;20041;-65
2023/09/11 06:57:04;;;;;;;1167.38;999.90;;;;;;;;;;4993066;28;20052;-64
2023/09/11 06:59:31;;;;;;;1161.22;999.90;;;;;;;;;;5004420;28;20049;-65
2023/09/11 07:01:57;;;;;;;1185.35;999.90;;;;;;;;;;4987127;28;20054;-66
2023/09/11 07:04:24;;;;;;;1166.82;999.90;;;;;;;;;;5014220;28;20068;-65
2023/09/11 07:06:51;;;;;;;1174.05;999.90;;;;;;;;;;5012990;28;20124;-68
2023/09/11 07:09:18;;;;;;;1182.95;999.90;;;;;;;;;;4995748;28;20049;-66
2023/09/11 07:11:44;;;;;;;1175.57;999.90;;;;;;;;;;5013332;28;20041;-65
2023/09/11 07:14:18;;;;;;;1186.78;999.90;;;;;;;;;;5013146;28;20037;-66
2023/09/11 07:16:44;;;;;;;1169.72;999.90;;;;;;;;;;5004412;28;20052;-67
2023/09/11 07:19:11;;;;;;;1177.68;999.90;;;;;;;;;;5013031;28;20507;-66
2023/09/11 07:21:38;;;;;;;1171.03;999.90;;;;;;;;;;4992732;28;20042;-65
2023/09/11 07:24:04;;;;;;;1176.70;999.90;;;;;;;;;;5005253;28;20046;-67
2023/09/11 07:26:31;;;;;;;1188.20;999.90;;;;;;;;;;4995217;28;20080;-66
2023/09/11 07:29:01;;;;;;;1185.03;999.90;;;;;;;;;;5012837;28;20100;-65
2023/09/11 07:31:28;;;;;;;1184.50;999.90;;;;;;;;;;4988419;28;20467;-67
2023/09/11 07:33:55;;;;;;;1161.55;999.90;;;;;;;;;;4986572;28;20483;-66
2023/09/11 07:36:22;;;;;;;1159.85;999.90;;;;;;;;;;5012477;28;20475;-66
2023/09/11 07:38:48;;;;;;;1151.38;999.90;;;;;;;;;;5012627;28;20048;-65
2023/09/11 07:41:16;;;;;;;1146.43;999.90;;;;;;;;;;5012590;28;20446;-65
2023/09/11 07:43:46;;;;;;;1127.28;999.90;;;;;;;;;;5013430;28;20041;-66
2023/09/11 07:46:12;;;;;;;1108.68;999.90;;;;;;;;;;4986823;28;20060;-66
2023/09/11 07:48:39;;;;;;;1111.72;999.90;;;;;;;;;;5012430;28;20046;-66
2023/09/11 07:51:06;;;;;;;1108.63;999.90;;;;;;;;;;5012497;28;20045;-66
2023/09/11 07:53:33;;;;;;;1085.18;990.90;;;;;;;;;;5003225;28;20057;-65
2023/09/11 07:56:04;;;;;;;1098.93;998.72;;;;;;;;;;5012657;28;20046;-66
2023/09/11 07:58:30;;;;;;;1090.38;996.17;;;;;;;;;;5013510;28;20414;-67
2023/09/11 08:00:57;;;;;;;1084.30;984.47;;;;;;;;;;5012230;28;20097;-66
2023/09/11 08:03:23;;;;;;;1069.78;977.95;;;;;;;;;;5011669;28;20054;-65
2023/09/11 08:05:50;;;;;;;1071.38;979.28;;;;;;;;;;4991115;28;20510;-66
2023/09/11 08:08:17;;;;;;;1076.10;983.40;;;;;;;;;;4993826;28;20060;-66
2023/09/11 08:10:43;;;;;;;1079.07;985.13;;;;;;;;;;5013132;28;20121;-65
2023/09/11 08:13:10;;;;;;;1063.38;970.88;;;;;;;;;;5011795;28;20046;-66
2023/09/11 08:15:37;;;;;;;1063.57;973.10;;;;;;;;;;5012193;28;20038;-66
2023/09/11 08:18:04;;;;;;;1070.80;978.88;;;;;;;;;;5011909;28;20399;-65
2023/09/11 08:20:30;;;;;;;1066.55;974.60;;;;;;;;;;5011681;28;20459;-67
2023/09/11 08:23:01;;;;;;;1077.30;982.08;;;;;;;;;;5012341;28;20066;-68
2023/09/11 08:25:28;;;;;;;1069.22;977.85;;;;;;;;;;4987206;28;20502;-65
2023/09/11 08:27:55;;;;;;;1065.72;974.72;;;;;;;;;;5008287;28;20053;-66
2023/09/11 08:30:22;;;;;;;1067.72;976.33;;;;;;;;;;5012169;28;20038;-65
2023/09/11 08:32:49;;;;;;;1075.40;983.47;;;;;;;;;;4994137;28;20384;-65
2023/09/11 08:35:15;;;;;;;1073.32;980.63;;;;;;;;;;5011558;28;20038;-65
2023/09/11 08:37:42;;;;;;;1066.13;972.42;;;;;;;;;;5012557;28;20108;-67
2023/09/11 08:40:09;;;;;;;1064.80;973.90;;;;;;;;;;5001786;28;20077;-65
2023/09/11 08:42:36;;;;;;;1069.60;977.42;;;;;;;;;;5011288;28;20030;-66
2023/09/11 08:45:02;;;;;;;1073.88;981.88;;;;;;;;;;5009983;28;20364;-66
2023/09/11 08:47:30;;;;;;;1067.68;975.70;;;;;;;;;;5011398;28;20046;-66
2023/09/11 08:50:03;;;;;;;1077.20;983.95;;;;;;;;;;5011599;28;20045;-66
2023/09/11 08:52:29;;;;;;;;;;;;;;;;;;5011155;28;20045;-67
2023/09/11 08:54:59;;;;;;;1075.93;983.25;;;;;;;;;;4985293;28;19937;-65
2023/09/11 08:57:31;;;;;;;1074.80;983.45;;;;;;;;;;5011328;28;20046;-66
2023/09/11 09:00:03;;;;;;;1078.88;985.42;;;;;;;;;;5007105;28;20034;-65
2023/09/11 09:02:30;;;;;;;1086.55;992.95;;;;;;;;;;5010634;28;20056;-66
2023/09/11 09:04:58;;;;;;;1090.13;994.13;;;;;;;;;;5010724;28;20066;-67
2023/09/11 09:07:25;;;;;;;1088.80;994.85;;;;;;;;;;4991005;28;20132;-66
2023/09/11 09:09:53;;;;;;;1085.82;993.10;;;;;;;;;;4986258;28;20085;-66
2023/09/11 09:12:20;;;;;;;1087.05;993.75;;;;;;;;;;5010847;28;20123;-66
2023/09/11 09:14:48;;;;;;;1095.30;998.58;;;;;;;;;;4993062;28;20049;-66
2023/09/11 09:17:15;;;;;;;1090.80;997.10;;;;;;;;;;4985453;28;20132;-66
2023/09/11 09:19:42;;;;;;;1090.80;996.88;;;;;;;;;;4994070;28;20564;-67
2023/09/11 09:22:10;;;;;;;1105.25;999.60;;;;;;;;;;5009904;28;20049;-65
2023/09/11 09:24:37;;;;;;;1102.53;999.90;;;;;;;;;;5008303;28;20044;-65
2023/09/11 09:27:05;;;;;;;1093.45;997.13;;;;;;;;;;5010051;28;20053;-67
2023/09/11 09:29:36;;;;;;;1097.57;997.78;;;;;;;;;;5010171;28;20050;-66
2023/09/11 09:32:04;;;;;;;1118.38;999.90;;;;;;;;;;4992348;28;20103;-65
2023/09/11 09:34:35;;;;;;;1113.30;999.90;;;;;;;;;;5009445;28;20128;-67
2023/09/11 09:37:04;;;;;;;1117.63;999.90;;;;;;;;;;5010672;28;20053;-67
2023/09/11 09:39:33;;;;;;;1104.35;999.90;;;;;;;;;;4989521;28;20117;-66
2023/09/11 09:42:01;;;;;;;1103.72;999.90;;;;;;;;;;5010711;28;20096;-66
2023/09/11 09:44:29;;;;;;;1113.75;999.90;;;;;;;;;;4982928;28;20053;-67
2023/09/11 09:46:56;;;;;;;1116.43;999.90;;;;;;;;;;4992511;28;20042;-66
2023/09/11 09:49:23;;;;;;;1114.55;999.90;;;;;;;;;;5010403;28;20116;-68
2023/09/11 09:51:52;;;;;;;1120.88;999.90;;;;;;;;;;5008653;28;20049;-68
2023/09/11 09:54:19;;;;;;;1117.28;999.90;;;;;;;;;;5009874;28;20052;-66
2023/09/11 09:56:46;;;;;;;1121.75;999.90;;;;;;;;;;5009232;28;20034;-66
2023/09/11 09:59:22;;;;;;;1136.10;999.90;;;;;;;;;;5008117;28;20057;-67
2023/09/11 10:01:50;;;;;;;1124.15;999.90;;;;;;;;;;4985427;28;20145;-66
2023/09/11 10:04:17;;;;;;;1127.18;999.90;;;;;;;;;;4990695;28;20057;-67
2023/09/11 10:06:52;;;;;;;1135.90;999.90;;;;;;;;;;5005981;28;20042;-67
2023/09/11 10:09:19;;;;;;;1133.50;999.90;;;;;;;;;;4983068;28;20046;-68
2023/09/11 10:11:46;;;;;;;1131.32;999.90;;;;;;;;;;5009901;28;20453;-66
2023/09/11 10:14:12;;;;;;;1149.55;999.90;;;;;;;;;;5009782;28;20049;-67
2023/09/11 10:16:40;;;;;;;1143.65;999.90;;;;;;;;;;5009936;28;20104;-67
2023/09/11 10:19:07;;;;;;;1149.45;999.90;;;;;;;;;;4988820;28;20053;-66
2023/09/11 10:21:34;;;;;;;1148.00;999.90;;;;;;;;;;4991855;28;20042;-67
2023/09/11 10:24:01;;;;;;;1142.22;999.90;;;;;;;;;;5009037;28;20066;-66
2023/09/11 10:26:44;;;;;;;1136.63;999.90;;;;;;;;;;4990541;28;20195;-67
2023/09/11 10:29:11;;;;;;;1142.45;999.90;;;;;;;;;;5006606;28;20119;-67
2023/09/11 10:32:01;;;;;;;1141.18;999.90;;;;;;;;;;5010639;28;20049;-67
2023/09/11 10:34:28;;;;;;;1133.97;999.90;;;;;;;;;;5010280;28;20066;-66
2023/09/11 10:36:56;;;;;;;1141.72;999.90;;;;;;;;;;5010797;28;20057;-66
2023/09/11 10:39:23;;;;;;;1148.68;999.90;;;;;;;;;;5012301;28;20113;-66
2023/09/11 10:41:50;;;;;;;1157.03;999.90;;;;;;;;;;5011163;28;20052;-68
2023/09/11 10:44:17;;;;;;;1158.53;999.90;;;;;;;;;;5012782;28;20050;-65
2023/09/11 10:46:48;;;;;;;1152.55;999.90;;;;;;;;;;5013159;28;20065;-66
2023/09/11 10:49:16;;;;;;;1152.25;999.90;;;;;;;;;;4989473;28;20051;-66
2023/09/11 10:51:42;;;;;;;1154.18;999.90;;;;;;;;;;5012595;28;20045;-68
2023/09/11 10:54:11;;;;;;;1157.00;999.90;;;;;;;;;;5011720;28;20041;-66
2023/09/11 10:56:38;;;;;;;1163.70;999.90;;;;;;;;;;5001454;28;20050;-65
2023/09/11 10:59:05;;;;;;;1171.43;999.90;;;;;;;;;;4994427;28;20450;-66
2023/09/11 11:01:32;;;;;;;1165.68;999.90;;;;;;;;;;5011978;28;20046;-67
2023/09/11 11:04:03;;;;;;;1161.60;999.90;;;;;;;;;;4986161;28;20033;-66
2023/09/11 11:06:31;;;;;;;1170.20;999.90;;;;;;;;;;4991207;28;20052;-66
2023/09/11 11:08:57;;;;;;;1166.90;999.90;;;;;;;;;;5012672;28;20034;-70
2023/09/11 11:11:27;;;;;;;1164.07;999.90;;;;;;;;;;4993877;28;20419;-67
2023/09/11 11:14:10;;;;;;;1158.72;999.90;;;;;;;;;;5013369;28;20483;-66
2023/09/11 11:16:37;;;;;;;1154.43;999.90;;;;;;;;;;4994022;28;20049;-66
2023/09/11 11:19:04;;;;;;;1152.63;999.90;;;;;;;;;;5012010;28;20041;-66
2023/09/11 11:21:40;;;;;;;1155.78;999.90;;;;;;;;;;5012394;28;20042;-66
2023/09/11 11:24:08;;;;;;;1150.72;999.90;;;;;;;;;;5010341;28;20046;-67
2023/09/11 11:26:36;;;;;;;1163.90;999.90;;;;;;;;;;4994724;28;20045;-65
2023/09/11 11:29:03;;;;;;;1168.95;999.90;;;;;;;;;;5009249;28;20380;-67
2023/09/11 11:31:30;;;;;;;1165.18;999.90;;;;;;;;;;5009644;28;20128;-66
2023/09/11 11:33:57;;;;;;;1159.25;999.90;;;;;;;;;;4994336;28;20056;-66
2023/09/11 11:36:25;;;;;;;1164.20;999.90;;;;;;;;;;5011633;28;20042;-65
2023/09/11 11:38:54;;;;;;;1166.97;999.90;;;;;;;;;;4993839;28;20049;-70
2023/09/11 11:41:21;;;;;;;1163.85;999.90;;;;;;;;;;5010048;28;20120;-68
2023/09/11 11:43:48;;;;;;;1159.55;999.90;;;;;;;;;;5009027;28;20057;-65
2023/09/11 11:46:15;;;;;;;1180.88;999.90;;;;;;;;;;5011706;28;20483;-66
2023/09/11 11:48:43;;;;;;;1155.05;999.90;;;;;;;;;;5006269;28;20101;-68
2023/09/11 11:51:10;;;;;;;1165.57;999.90;;;;;;;;;;5007841;28;20061;-66
2023/09/11 11:53:38;;;;;;;1161.25;999.90;;;;;;;;;;5011497;28;20034;-67
2023/09/11 11:56:05;;;;;;;1170.63;999.90;;;;;;;;;;5001648;28;20054;-68
2023/09/11 11:58:32;;;;;;;1163.10;999.90;;;;;;;;;;5012357;28;20070;-67
2023/09/11 12:01:02;;;;;;;1158.43;999.90;;;;;;;;;;4990700;28;20116;-66
2023/09/11 12:03:30;;;;;;;1158.68;999.90;;;;;;;;;;5011258;28;20495;-69
2023/09/11 12:05:58;;;;;;;1170.95;999.90;;;;;;;;;;5007425;28;20064;-66
2023/09/11 12:08:24;;;;;;;1174.80;999.90;;;;;;;;;;4980509;28;20042;-66
2023/09/11 12:10:51;;;;;;;1159.63;999.90;;;;;;;;;;5010827;28;20046;-71
2023/09/11 12:13:19;;;;;;;1162.07;999.90;;;;;;;;;;4992530;28;20049;-70
2023/09/11 12:15:57;;;;;;;1163.43;999.90;;;;;;;;;;4992642;28;20137;-67
2023/09/11 12:18:28;;;;;;;1165.57;999.90;;;;;;;;;;4993091;28;20144;-67
2023/09/11 12:20:57;;;;;;;1158.35;999.90;;;;;;;;;;4993386;28;20038;-67
2023/09/11 12:23:27;;;;;;;1177.40;999.90;;;;;;;;;;4985372;28;20056;-69
2023/09/11 12:26:11;;;;;;;1176.05;999.90;;;;;;;;;;4972466;28;20144;-68
2023/09/11 12:28:38;;;;;;;1165.63;999.90;;;;;;;;;;4996245;28;20049;-69
2023/09/11 12:31:09;;;;;;;1175.80;999.90;;;;;;;;;;4975141;28;20419;-66
2023/09/11 12:33:55;;;;;;;1168.93;999.90;;;;;;;;;;5006905;28;20049;-66
2023/09/11 12:36:24;;;;;;;1165.53;999.90;;;;;;;;;;4975300;28;20455;-67
2023/09/11 12:38:52;;;;;;;1168.32;999.90;;;;;;;;;;5001639;28;20038;-67
2023/09/11 12:41:24;;;;;;;1171.05;999.90;;;;;;;;;;4991525;28;20042;-67
2023/09/11 12:43:52;;;;;;;1156.80;999.90;;;;;;;;;;5010795;28;20049;-66
2023/09/11 12:46:19;;;;;;;1177.28;999.90;;;;;;;;;;5010733;28;20077;-66
2023/09/11 12:48:45;;;;;;;1163.70;999.90;;;;;;;;;;5010871;28;20046;-68
2023/09/11 12:51:13;;;;;;;1172.82;999.90;;;;;;;;;;4975725;28;20050;-66
2023/09/11 12:53:39;;;;;;;1168.30;999.90;;;;;;;;;;5011010;28;20037;-67
2023/09/11 12:56:09;;;;;;;1171.38;999.90;;;;;;;;;;4993452;28;20074;-66
2023/09/11 12:58:38;;;;;;;1163.93;999.90;;;;;;;;;;4992167;28;20057;-69
2023/09/11 13:01:05;;;;;;;1169.75;999.90;;;;;;;;;;4991364;28;20132;-68
2023/09/11 13:03:32;;;;;;;1154.40;999.90;;;;;;;;;;4992524;28;20108;-69
2023/09/11 13:05:59;;;;;;;1159.78;999.90;;;;;;;;;;4992838;28;20450;-65
2023/09/11 13:08:28;;;;;;;1164.45;999.90;;;;;;;;;;4991975;28;20034;-67
2023/09/11 13:10:55;;;;;;;1166.10;999.90;;;;;;;;;;5011150;28;20077;-66
2023/09/11 13:13:22;;;;;;;1156.20;999.90;;;;;;;;;;4992817;28;20053;-69
2023/09/11 13:16:01;;;;;;;1154.18;999.90;;;;;;;;;;5010604;28;20053;-66
2023/09/11 13:18:28;;;;;;;1160.63;999.90;;;;;;;;;;5010812;28;20618;-67
2023/09/11 13:20:55;;;;;;;1149.53;999.90;;;;;;;;;;4993477;28;20046;-68
2023/09/11 13:23:22;;;;;;;1157.63;999.90;;;;;;;;;;5010375;28;20129;-68
2023/09/11 13:25:48;;;;;;;1167.32;999.90;;;;;;;;;;4993959;28;20054;-67
2023/09/11 13:28:15;;;;;;;1161.00;999.90;;;;;;;;;;4992557;28;20076;-66
2023/09/11 13:30:42;;;;;;;1162.00;999.90;;;;;;;;;;5010283;28;20100;-66
2023/09/11 13:33:13;;;;;;;1172.45;999.90;;;;;;;;;;5009524;28;20041;-66
2023/09/11 13:35:57;;;;;;;1152.10;999.90;;;;;;;;;;4990017;28;20403;-67
2023/09/11 13:38:24;;;;;;;1160.60;999.90;;;;;;;;;;5004671;28;20057;-67
2023/09/11 13:40:51;;;;;;;1156.78;999.90;;;;;;;;;;4990841;28;20057;-70
2023/09/11 13:43:18;;;;;;;1154.10;999.90;;;;;;;;;;5009091;28;20104;-66
2023/09/11 13:45:44;;;;;;;1152.25;999.90;;;;;;;;;;5010662;28;20117;-68
2023/09/11 13:48:11;;;;;;;1150.25;999.90;;;;;;;;;;5010272;28;20044;-68